Time;durP1;ratioP1;P1;durP2;ratioP2;P2;SDS_P1;SDS_P2;PMS_P1;PMS_P2;Temp;Humidity;BMP_temperature;BMP_pressure;BME280_temperature;BME280_humidity;BME280_pressure;Samples;Min_cycle;Max_cycle;Signal;HPM_P1;HPM_P2
2023/08/13 00:02:21;;;;;;;3.65;1.80;;;;;;;;;;7369888;19;20002;-74
2023/08/13 00:04:46;;;;;;;5.22;1.83;;;;;;;;;;7370718;19;20015;-73
2023/08/13 00:07:12;;;;;;;2.72;1.77;;;;;;;;;;7370948;19;20007;-74
2023/08/13 00:09:37;;;;;;;3.45;1.90;;;;;;;;;;7386769;19;20006;-74
2023/08/13 00:12:03;;;;;;;5.72;2.08;;;;;;;;;;7378367;19;19998;-73
2023/08/13 00:14:29;;;;;;;5.63;2.15;;;;;;;;;;7365691;19;20010;-73
2023/08/13 00:16:54;;;;;;;3.28;1.90;;;;;;;;;;7367501;19;20003;-73
2023/08/13 00:19:20;;;;;;;4.32;1.90;;;;;;;;;;7366706;19;20002;-74
2023/08/13 00:21:45;;;;;;;7.60;2.20;;;;;;;;;;7367290;19;20010;-73
2023/08/13 00:24:10;;;;;;;2.40;1.70;;;;;;;;;;7387418;19;20002;-73
2023/08/13 00:26:37;;;;;;;2.83;1.73;;;;;;;;;;7367572;19;20002;-73
2023/08/13 00:29:03;;;;;;;4.13;2.00;;;;;;;;;;7369522;19;20013;-74
2023/08/13 00:31:29;;;;;;;3.78;2.08;;;;;;;;;;7369332;19;20027;-73
2023/08/13 00:33:54;;;;;;;2.80;1.88;;;;;;;;;;7368983;19;20011;-73
2023/08/13 00:36:19;;;;;;;3.10;1.98;;;;;;;;;;7391087;19;20345;-74
2023/08/13 00:38:44;;;;;;;3.13;2.05;;;;;;;;;;7368621;19;20086;-73
2023/08/13 00:41:10;;;;;;;3.25;1.90;;;;;;;;;;7369644;19;20035;-73
2023/08/13 00:43:36;;;;;;;6.72;2.67;;;;;;;;;;7367171;19;20014;-73
2023/08/13 00:46:03;;;;;;;3.67;1.92;;;;;;;;;;7369094;19;20074;-73
2023/08/13 00:48:29;;;;;;;5.03;1.90;;;;;;;;;;7389831;19;20036;-73
2023/08/13 00:50:54;;;;;;;3.63;2.00;;;;;;;;;;7368812;19;20011;-73
2023/08/13 00:53:20;;;;;;;3.65;2.20;;;;;;;;;;7368640;19;20002;-73
2023/08/13 00:55:45;;;;;;;5.93;2.20;;;;;;;;;;7368066;19;20491;-73
2023/08/13 00:58:11;;;;;;;3.38;1.85;;;;;;;;;;7369011;19;20002;-73
2023/08/13 01:00:38;;;;;;;3.55;2.17;;;;;;;;;;7390648;19;20023;-72
2023/08/13 01:03:03;;;;;;;5.28;2.13;;;;;;;;;;7368050;19;20010;-74
2023/08/13 01:05:53;;;;;;;5.95;2.10;;;;;;;;;;7367640;19;20081;-73
2023/08/13 01:08:39;;;;;;;2.87;2.00;;;;;;;;;;7368188;19;20496;-73
2023/08/13 01:11:20;;;;;;;4.35;2.17;;;;;;;;;;7368532;19;20010;-73
2023/08/13 01:13:59;;;;;;;4.38;2.08;;;;;;;;;;7368560;19;20024;-73
2023/08/13 01:16:26;;;;;;;3.63;2.00;;;;;;;;;;7368825;19;20003;-73
2023/08/13 01:18:52;;;;;;;5.70;2.10;;;;;;;;;;7367727;19;20010;-73
2023/08/13 01:21:17;;;;;;;3.30;2.20;;;;;;;;;;7390395;19;20002;-72
2023/08/13 01:23:42;;;;;;;5.75;2.70;;;;;;;;;;7366168;19;20014;-73
2023/08/13 01:26:16;;;;;;;5.70;2.60;;;;;;;;;;7367813;19;20072;-73
2023/08/13 01:28:55;;;;;;;4.43;2.30;;;;;;;;;;7367924;19;20053;-73
2023/08/13 01:31:27;;;;;;;3.97;2.20;;;;;;;;;;7367472;19;20010;-74
2023/08/13 01:33:56;;;;;;;4.15;2.30;;;;;;;;;;7368234;19;20002;-73
2023/08/13 01:36:24;;;;;;;3.78;2.20;;;;;;;;;;7389600;19;20006;-73
2023/08/13 01:38:52;;;;;;;3.90;1.88;;;;;;;;;;7368372;19;20018;-72
2023/08/13 01:41:18;;;;;;;4.63;2.30;;;;;;;;;;7367535;19;20006;-73
2023/08/13 01:43:43;;;;;;;3.35;2.20;;;;;;;;;;7365361;19;20011;-73
2023/08/13 01:46:08;;;;;;;3.95;2.40;;;;;;;;;;7367907;19;20018;-72
2023/08/13 01:48:34;;;;;;;4.20;2.30;;;;;;;;;;7388570;19;20018;-73
2023/08/13 01:50:59;;;;;;;5.65;2.50;;;;;;;;;;7367528;19;20011;-73
2023/08/13 01:53:24;;;;;;;5.10;2.60;;;;;;;;;;7366066;19;20558;-72
2023/08/13 01:55:49;;;;;;;3.67;2.20;;;;;;;;;;7372829;19;20014;-72
2023/08/13 01:58:15;;;;;;;4.57;2.30;;;;;;;;;;7375326;19;20014;-73
2023/08/13 02:00:40;;;;;;;4.22;2.40;;;;;;;;;;7375461;19;19998;-74
2023/08/13 02:03:05;;;;;;;5.68;2.42;;;;;;;;;;7396357;19;20014;-73
2023/08/13 02:05:31;;;;;;;3.60;2.40;;;;;;;;;;7374294;19;20003;-72
2023/08/13 02:07:56;;;;;;;4.95;2.72;;;;;;;;;;7375590;19;20420;-73
2023/08/13 02:10:22;;;;;;;5.25;2.60;;;;;;;;;;7372540;19;20010;-73
2023/08/13 02:12:47;;;;;;;7.00;2.70;;;;;;;;;;7372695;19;20009;-71
2023/08/13 02:15:12;;;;;;;9.40;2.80;;;;;;;;;;7391208;19;20033;-72
2023/08/13 02:17:38;;;;;;;5.10;2.67;;;;;;;;;;7372034;19;20013;-73
2023/08/13 02:20:04;;;;;;;5.25;3.00;;;;;;;;;;7371460;19;20017;-72
2023/08/13 02:22:29;;;;;;;6.28;2.40;;;;;;;;;;7372490;19;20010;-73
2023/08/13 02:24:54;;;;;;;5.05;2.70;;;;;;;;;;7369793;19;20798;-74
2023/08/13 02:27:20;;;;;;;5.13;2.38;;;;;;;;;;7395815;19;19999;-73
2023/08/13 02:29:45;;;;;;;3.88;2.47;;;;;;;;;;7372006;19;20070;-73
2023/08/13 02:32:10;;;;;;;4.18;2.67;;;;;;;;;;7373845;19;20439;-74
2023/08/13 02:34:45;;;;;;;5.85;2.75;;;;;;;;;;7371712;19;20041;-74
2023/08/13 02:37:11;;;;;;;5.80;2.58;;;;;;;;;;7374252;19;20063;-74
2023/08/13 02:39:36;;;;;;;7.72;2.70;;;;;;;;;;7395391;19;20003;-73
2023/08/13 02:42:02;;;;;;;4.22;2.58;;;;;;;;;;7373268;19;20006;-73
2023/08/13 02:44:27;;;;;;;6.28;2.70;;;;;;;;;;7371052;19;20511;-73
2023/08/13 02:46:53;;;;;;;5.85;2.58;;;;;;;;;;7373579;19;20010;-73
2023/08/13 02:49:18;;;;;;;9.38;2.80;;;;;;;;;;7372350;19;20424;-73
2023/08/13 02:51:44;;;;;;;7.07;2.72;;;;;;;;;;7373822;19;19995;-74
2023/08/13 02:54:09;;;;;;;4.88;2.55;;;;;;;;;;7393281;19;20078;-73
2023/08/13 02:56:35;;;;;;;7.45;2.72;;;;;;;;;;7372523;19;20041;-72
2023/08/13 02:59:00;;;;;;;6.78;2.78;;;;;;;;;;7372708;19;20040;-72
2023/08/13 03:01:26;;;;;;;7.60;3.63;;;;;;;;;;7371708;19;20010;-73
2023/08/13 03:03:52;;;;;;;5.85;3.05;;;;;;;;;;7371351;19;20015;-73
2023/08/13 03:06:19;;;;;;;4.43;2.58;;;;;;;;;;7393499;19;20006;-73
2023/08/13 03:08:45;;;;;;;5.05;3.00;;;;;;;;;;7369902;19;20032;-71
2023/08/13 03:11:10;;;;;;;4.00;2.47;;;;;;;;;;7371568;19;20366;-73
2023/08/13 03:13:36;;;;;;;4.65;2.63;;;;;;;;;;7370527;19;20509;-73
2023/08/13 03:16:01;;;;;;;4.75;2.80;;;;;;;;;;7371513;19;20006;-72
2023/08/13 03:18:27;;;;;;;5.05;2.80;;;;;;;;;;7393688;19;20005;-72
2023/08/13 03:20:52;;;;;;;7.97;2.85;;;;;;;;;;7371744;19;20650;-72
2023/08/13 03:23:17;;;;;;;5.65;2.88;;;;;;;;;;7371795;19;19994;-72
2023/08/13 03:25:43;;;;;;;4.68;2.90;;;;;;;;;;7364506;19;20011;-72
2023/08/13 03:28:08;;;;;;;5.97;2.58;;;;;;;;;;7371262;19;20018;-72
2023/08/13 03:30:33;;;;;;;6.00;2.95;;;;;;;;;;7392978;19;20079;-72
2023/08/13 03:32:58;;;;;;;5.35;3.03;;;;;;;;;;7371509;19;20018;-72
2023/08/13 03:35:24;;;;;;;5.75;2.80;;;;;;;;;;7370556;19;20013;-72
2023/08/13 03:37:49;;;;;;;5.70;2.80;;;;;;;;;;7369649;19;20011;-73
2023/08/13 03:40:15;;;;;;;4.07;2.90;;;;;;;;;;7371139;19;20006;-73
2023/08/13 03:42:40;;;;;;;5.43;3.03;;;;;;;;;;7373455;19;20026;-73
2023/08/13 03:45:06;;;;;;;5.80;2.70;;;;;;;;;;7411189;19;20007;-72
2023/08/13 03:47:31;;;;;;;4.70;2.75;;;;;;;;;;7399805;19;20007;-72
2023/08/13 03:49:56;;;;;;;4.90;2.88;;;;;;;;;;7393115;19;20017;-73
2023/08/13 03:52:22;;;;;;;6.85;2.83;;;;;;;;;;7371469;19;20371;-74
2023/08/13 03:54:47;;;;;;;5.50;2.95;;;;;;;;;;7370027;19;20011;-73
2023/08/13 03:57:12;;;;;;;6.53;3.05;;;;;;;;;;7393869;19;20489;-72
2023/08/13 03:59:38;;;;;;;7.07;3.28;;;;;;;;;;7369535;19;20018;-72
2023/08/13 04:02:03;;;;;;;6.07;3.00;;;;;;;;;;7370833;19;20009;-74
2023/08/13 04:04:28;;;;;;;5.80;3.20;;;;;;;;;;7370579;19;20461;-72
2023/08/13 04:06:54;;;;;;;7.65;3.22;;;;;;;;;;7371046;19;20006;-73
2023/08/13 04:09:19;;;;;;;5.32;3.15;;;;;;;;;;7391417;19;20002;-73
2023/08/13 04:11:44;;;;;;;5.95;3.00;;;;;;;;;;7370130;19;20002;-72
2023/08/13 04:14:10;;;;;;;8.60;3.10;;;;;;;;;;7368005;19;20010;-73
2023/08/13 04:16:35;;;;;;;5.65;3.10;;;;;;;;;;7369555;19;20006;-73
2023/08/13 04:19:00;;;;;;;5.43;3.15;;;;;;;;;;7367624;19;20048;-73
2023/08/13 04:21:26;;;;;;;5.50;3.00;;;;;;;;;;7390949;19;20082;-73
2023/08/13 04:23:58;;;;;;;6.43;3.05;;;;;;;;;;7367752;19;20431;-73
2023/08/13 04:26:24;;;;;;;4.97;2.90;;;;;;;;;;7367550;19;20014;-72
2023/08/13 04:28:50;;;;;;;6.50;3.45;;;;;;;;;;7366648;19;20468;-73
2023/08/13 04:31:16;;;;;;;4.82;2.95;;;;;;;;;;7369907;19;20464;-73
2023/08/13 04:33:42;;;;;;;6.78;3.30;;;;;;;;;;7368409;19;20015;-73
2023/08/13 04:36:07;;;;;;;4.55;3.03;;;;;;;;;;7391316;19;20789;-73
2023/08/13 04:38:32;;;;;;;4.82;3.10;;;;;;;;;;7368953;19;20026;-73
2023/08/13 04:40:58;;;;;;;5.10;3.17;;;;;;;;;;7368715;19;20110;-73
2023/08/13 04:43:23;;;;;;;5.70;3.15;;;;;;;;;;7368629;19;20476;-73
2023/08/13 04:45:49;;;;;;;4.78;3.25;;;;;;;;;;7368751;19;20016;-73
2023/08/13 04:48:38;;;;;;;4.32;2.70;;;;;;;;;;7390699;19;20014;-73
2023/08/13 04:51:04;;;;;;;5.55;3.10;;;;;;;;;;7368934;19;20081;-73
2023/08/13 04:53:29;;;;;;;12.00;3.40;;;;;;;;;;7368045;19;21877;-73
2023/08/13 04:55:54;;;;;;;8.55;3.55;;;;;;;;;;7369051;19;20003;-73
2023/08/13 04:58:20;;;;;;;5.60;3.00;;;;;;;;;;7368683;19;20014;-74
2023/08/13 05:00:45;;;;;;;5.10;3.15;;;;;;;;;;7368175;19;20006;-73
2023/08/13 05:03:10;;;;;;;6.00;3.45;;;;;;;;;;7390352;19;20010;-73
2023/08/13 05:05:36;;;;;;;6.85;3.42;;;;;;;;;;7365269;19;20013;-74
2023/08/13 05:08:01;;;;;;;4.88;3.40;;;;;;;;;;7368112;19;20260;-73
2023/08/13 05:10:27;;;;;;;8.80;3.20;;;;;;;;;;7367975;19;20385;-72
2023/08/13 05:12:52;;;;;;;8.10;3.35;;;;;;;;;;7368449;19;20007;-72
2023/08/13 05:15:17;;;;;;;5.82;3.20;;;;;;;;;;7388414;19;20009;-72
2023/08/13 05:17:42;;;;;;;5.72;3.60;;;;;;;;;;7368085;19;20488;-72
2023/08/13 05:20:08;;;;;;;7.40;3.58;;;;;;;;;;7367567;19;20002;-73
2023/08/13 05:22:33;;;;;;;5.05;3.50;;;;;;;;;;7367950;19;20015;-72
2023/08/13 05:24:58;;;;;;;7.20;3.63;;;;;;;;;;7367541;19;20011;-73
2023/08/13 05:27:24;;;;;;;9.77;3.75;;;;;;;;;;7390020;19;20010;-73
2023/08/13 05:29:49;;;;;;;5.88;3.83;;;;;;;;;;7370251;19;20010;-73
2023/08/13 05:32:16;;;;;;;7.38;3.50;;;;;;;;;;7374332;19;20030;-73
2023/08/13 05:34:42;;;;;;;8.88;3.45;;;;;;;;;;7373879;19;20014;-73
2023/08/13 05:37:07;;;;;;;10.80;3.90;;;;;;;;;;7373860;19;20019;-73
2023/08/13 05:39:32;;;;;;;7.28;3.60;;;;;;;;;;7395545;19;20006;-72
2023/08/13 05:41:58;;;;;;;5.38;3.58;;;;;;;;;;7371950;19;20009;-72
2023/08/13 05:44:23;;;;;;;9.55;3.85;;;;;;;;;;7370304;19;20006;-72
2023/08/13 05:46:48;;;;;;;5.70;3.67;;;;;;;;;;7372996;19;20029;-72
2023/08/13 05:49:14;;;;;;;5.63;3.35;;;;;;;;;;7370811;19;20007;-73
2023/08/13 05:51:39;;;;;;;6.47;3.90;;;;;;;;;;7374585;19;20003;-73
2023/08/13 05:54:04;;;;;;;6.43;3.75;;;;;;;;;;7394454;19;20010;-72
2023/08/13 05:56:30;;;;;;;7.90;3.65;;;;;;;;;;7374283;19;20010;-73
2023/08/13 05:58:55;;;;;;;5.78;3.90;;;;;;;;;;7373988;19;20013;-73
2023/08/13 06:01:23;;;;;;;8.25;4.00;;;;;;;;;;7374052;19;20353;-77
2023/08/13 06:03:49;;;;;;;6.10;3.78;;;;;;;;;;7373132;19;20032;-73
2023/08/13 06:06:15;;;;;;;11.52;4.05;;;;;;;;;;7396527;19;20002;-73
2023/08/13 06:08:40;;;;;;;5.70;3.63;;;;;;;;;;7373178;19;20039;-73
2023/08/13 06:11:06;;;;;;;6.93;3.85;;;;;;;;;;7373378;19;20027;-73
2023/08/13 06:13:38;;;;;;;8.65;3.90;;;;;;;;;;7373402;19;20010;-73
2023/08/13 06:16:04;;;;;;;9.05;4.10;;;;;;;;;;7373257;19;20090;-73
2023/08/13 06:18:29;;;;;;;6.75;3.67;;;;;;;;;;7395938;19;20011;-73
2023/08/13 06:20:55;;;;;;;7.00;3.75;;;;;;;;;;7372910;19;20097;-74
2023/08/13 06:23:20;;;;;;;6.07;3.63;;;;;;;;;;7373970;19;20019;-72
2023/08/13 06:25:46;;;;;;;6.80;3.50;;;;;;;;;;7373651;19;20735;-72
2023/08/13 06:28:12;;;;;;;6.63;3.13;;;;;;;;;;7373393;19;20031;-72
2023/08/13 06:30:37;;;;;;;5.75;3.53;;;;;;;;;;7389557;19;20104;-73
2023/08/13 06:33:03;;;;;;;6.43;3.25;;;;;;;;;;7382463;19;20006;-73
2023/08/13 06:35:29;;;;;;;5.75;3.20;;;;;;;;;;7372473;19;20007;-73
2023/08/13 06:37:54;;;;;;;6.80;2.90;;;;;;;;;;7373513;19;20017;-73
2023/08/13 06:40:19;;;;;;;5.80;2.65;;;;;;;;;;7367299;19;20070;-74
2023/08/13 06:42:45;;;;;;;5.03;2.72;;;;;;;;;;7370817;19;20060;-74
2023/08/13 06:45:10;;;;;;;4.88;2.63;;;;;;;;;;7389402;19;20195;-73
2023/08/13 06:47:35;;;;;;;6.93;2.83;;;;;;;;;;7369412;19;20019;-73
2023/08/13 06:50:01;;;;;;;4.97;2.72;;;;;;;;;;7369001;19;20027;-73
2023/08/13 06:52:26;;;;;;;5.20;2.60;;;;;;;;;;7369881;19;20472;-73
2023/08/13 06:54:51;;;;;;;4.50;2.28;;;;;;;;;;7369385;19;20322;-73
2023/08/13 06:57:16;;;;;;;5.10;2.40;;;;;;;;;;7392369;19;20005;-73
2023/08/13 06:59:42;;;;;;;5.65;2.33;;;;;;;;;;7371539;19;20010;-73
2023/08/13 07:02:07;;;;;;;6.35;2.70;;;;;;;;;;7371626;19;20013;-74
2023/08/13 07:04:32;;;;;;;4.63;2.30;;;;;;;;;;7371322;19;20010;-72
2023/08/13 07:06:59;;;;;;;4.05;2.40;;;;;;;;;;7371060;19;20000;-72
2023/08/13 07:09:25;;;;;;;4.38;2.30;;;;;;;;;;7389159;19;20318;-71
2023/08/13 07:11:51;;;;;;;6.00;2.55;;;;;;;;;;7366402;19;20002;-72
2023/08/13 07:14:16;;;;;;;6.47;2.90;;;;;;;;;;7368308;19;20413;-72
2023/08/13 07:16:41;;;;;;;5.15;2.80;;;;;;;;;;7370184;19;20135;-72
2023/08/13 07:19:07;;;;;;;5.05;2.65;;;;;;;;;;7371279;19;20006;-72
2023/08/13 07:21:32;;;;;;;6.88;2.72;;;;;;;;;;7393288;19;20382;-72
2023/08/13 07:23:57;;;;;;;5.05;3.00;;;;;;;;;;7369906;19;20489;-73
2023/08/13 07:26:23;;;;;;;9.80;2.88;;;;;;;;;;7372257;19;20007;-72
2023/08/13 07:28:48;;;;;;;5.70;3.05;;;;;;;;;;7371213;19;20020;-72
2023/08/13 07:31:14;;;;;;;4.20;2.88;;;;;;;;;;7371798;19;19998;-72
2023/08/13 07:33:39;;;;;;;8.48;3.30;;;;;;;;;;7370183;19;20012;-73
2023/08/13 07:36:05;;;;;;;6.25;3.33;;;;;;;;;;7394935;19;20001;-71
2023/08/13 07:38:30;;;;;;;6.78;2.80;;;;;;;;;;7374145;19;20444;-71
2023/08/13 07:40:57;;;;;;;6.55;3.00;;;;;;;;;;7396929;19;19998;-70
2023/08/13 07:43:23;;;;;;;6.38;3.08;;;;;;;;;;7396120;19;20452;-72
2023/08/13 07:45:48;;;;;;;6.57;2.97;;;;;;;;;;7381965;19;20107;-72
2023/08/13 07:48:13;;;;;;;5.18;2.80;;;;;;;;;;7391730;19;20003;-72
2023/08/13 07:50:40;;;;;;;4.35;2.60;;;;;;;;;;7369952;19;20088;-72
2023/08/13 07:53:05;;;;;;;7.78;2.92;;;;;;;;;;7368511;19;19998;-73
2023/08/13 07:55:30;;;;;;;5.85;2.90;;;;;;;;;;7367347;19;20509;-71
2023/08/13 07:57:56;;;;;;;4.93;3.10;;;;;;;;;;7369807;19;20527;-70
2023/08/13 08:00:21;;;;;;;6.05;2.88;;;;;;;;;;7391734;19;19994;-71
2023/08/13 08:02:46;;;;;;;4.95;2.90;;;;;;;;;;7363883;19;20010;-73
2023/08/13 08:05:12;;;;;;;7.05;3.15;;;;;;;;;;7363996;19;20003;-73
2023/08/13 08:07:37;;;;;;;5.45;2.78;;;;;;;;;;7366266;19;20687;-71
2023/08/13 08:10:03;;;;;;;6.10;2.80;;;;;;;;;;7363807;19;20596;-72
2023/08/13 08:12:29;;;;;;;4.07;2.70;;;;;;;;;;7388138;19;19998;-71
2023/08/13 08:14:54;;;;;;;5.93;2.88;;;;;;;;;;7363220;19;20018;-72
2023/08/13 08:17:20;;;;;;;4.10;2.58;;;;;;;;;;7368531;19;20402;-72
2023/08/13 08:19:46;;;;;;;4.70;2.83;;;;;;;;;;7369996;19;20009;-73
2023/08/13 08:22:11;;;;;;;4.65;2.53;;;;;;;;;;7370103;19;20013;-72
2023/08/13 08:24:36;;;;;;;5.03;2.53;;;;;;;;;;7390153;19;20006;-73
2023/08/13 08:27:03;;;;;;;4.75;2.28;;;;;;;;;;7368710;19;20002;-68
2023/08/13 08:29:28;;;;;;;3.63;2.25;;;;;;;;;;7367194;19;20044;-69
2023/08/13 08:31:53;;;;;;;3.88;2.50;;;;;;;;;;7369836;19;20395;-69
2023/08/13 08:34:19;;;;;;;4.43;2.50;;;;;;;;;;7368432;19;20082;-69
2023/08/13 08:36:44;;;;;;;5.53;2.60;;;;;;;;;;7369994;19;19995;-68
2023/08/13 08:39:09;;;;;;;4.18;2.38;;;;;;;;;;7391018;19;20091;-69
2023/08/13 08:41:44;;;;;;;5.15;2.40;;;;;;;;;;7369313;19;20729;-69
2023/08/13 08:44:18;;;;;;;4.05;2.63;;;;;;;;;;7367601;19;20483;-70
2023/08/13 08:46:44;;;;;;;6.18;2.33;;;;;;;;;;7368501;19;20344;-69
2023/08/13 08:49:11;;;;;;;5.72;2.22;;;;;;;;;;7368762;19;20011;-68
2023/08/13 08:51:37;;;;;;;4.85;2.10;;;;;;;;;;7391805;19;20009;-70
2023/08/13 08:54:04;;;;;;;5.78;2.60;;;;;;;;;;7367828;19;20002;-71
2023/08/13 08:56:29;;;;;;;6.90;2.53;;;;;;;;;;7369081;19;19998;-69
2023/08/13 08:58:54;;;;;;;8.95;2.80;;;;;;;;;;7368647;19;20370;-68
2023/08/13 09:01:20;;;;;;;5.53;2.55;;;;;;;;;;7367375;19;20346;-69
2023/08/13 09:03:45;;;;;;;5.95;2.60;;;;;;;;;;7367414;19;20003;-69
2023/08/13 09:06:10;;;;;;;5.55;2.50;;;;;;;;;;7390205;19;20050;-70
2023/08/13 09:08:36;;;;;;;5.30;2.30;;;;;;;;;;7366844;19;20010;-70
2023/08/13 09:11:02;;;;;;;3.10;2.15;;;;;;;;;;7368390;19;20376;-69
2023/08/13 09:13:27;;;;;;;5.88;2.22;;;;;;;;;;7367205;19;20025;-69
2023/08/13 09:15:53;;;;;;;6.50;2.47;;;;;;;;;;7366920;19;20054;-69
2023/08/13 09:18:18;;;;;;;4.95;2.13;;;;;;;;;;7388067;19;20062;-69
2023/08/13 09:20:48;;;;;;;4.60;2.33;;;;;;;;;;7352240;19;20002;-70
2023/08/13 09:23:23;;;;;;;4.47;2.38;;;;;;;;;;7363131;19;20558;-71
2023/08/13 09:25:53;;;;;;;4.40;2.60;;;;;;;;;;7358635;19;20524;-69
2023/08/13 09:28:18;;;;;;;8.20;2.70;;;;;;;;;;7362131;19;20024;-69
2023/08/13 09:30:44;;;;;;;5.18;2.50;;;;;;;;;;7353935;19;20026;-69
2023/08/13 09:33:14;;;;;;;7.53;2.40;;;;;;;;;;7379846;19;20559;-70
2023/08/13 09:35:40;;;;;;;8.00;2.53;;;;;;;;;;7360333;19;20014;-70
2023/08/13 09:38:06;;;;;;;4.55;2.08;;;;;;;;;;7351412;19;20182;-69
2023/08/13 09:40:31;;;;;;;5.47;2.28;;;;;;;;;;7362966;19;20069;-71
2023/08/13 09:42:58;;;;;;;7.45;2.80;;;;;;;;;;7363767;19;20121;-70
2023/08/13 09:45:28;;;;;;;5.07;2.47;;;;;;;;;;7382461;19;20275;-70
2023/08/13 09:47:55;;;;;;;4.85;2.25;;;;;;;;;;7362108;19;20665;-70
2023/08/13 09:50:24;;;;;;;6.20;2.10;;;;;;;;;;7365319;19;20011;-70
2023/08/13 09:52:52;;;;;;;6.28;2.38;;;;;;;;;;7362991;19;20487;-70
2023/08/13 09:55:23;;;;;;;7.47;2.30;;;;;;;;;;7362959;19;20006;-70
2023/08/13 09:57:50;;;;;;;6.50;2.40;;;;;;;;;;7363764;19;20007;-70
2023/08/13 10:00:16;;;;;;;6.47;2.28;;;;;;;;;;7386956;19;20014;-70
2023/08/13 10:02:43;;;;;;;4.55;2.00;;;;;;;;;;7362353;19;20018;-70
2023/08/13 10:05:09;;;;;;;4.78;2.28;;;;;;;;;;7365132;19;20044;-70
2023/08/13 10:07:36;;;;;;;5.72;2.00;;;;;;;;;;7362172;19;20006;-70
2023/08/13 10:10:05;;;;;;;4.20;2.15;;;;;;;;;;7362100;19;20134;-69
2023/08/13 10:12:31;;;;;;;5.65;2.30;;;;;;;;;;7383702;19;20039;-70
2023/08/13 10:14:57;;;;;;;7.50;2.20;;;;;;;;;;7361716;19;20017;-70
2023/08/13 10:17:26;;;;;;;4.50;2.30;;;;;;;;;;7370319;19;20010;-71
2023/08/13 10:19:54;;;;;;;4.82;1.92;;;;;;;;;;7369967;19;20050;-71
2023/08/13 10:22:30;;;;;;;6.85;2.05;;;;;;;;;;7369438;19;20007;-71
2023/08/13 10:24:55;;;;;;;3.85;2.05;;;;;;;;;;7366555;19;20038;-71
2023/08/13 10:27:22;;;;;;;6.80;2.30;;;;;;;;;;7390531;19;20465;-71
2023/08/13 10:29:47;;;;;;;8.07;2.40;;;;;;;;;;7365102;19;20007;-71
2023/08/13 10:32:15;;;;;;;4.72;2.20;;;;;;;;;;7369289;19;20393;-71
2023/08/13 10:34:43;;;;;;;6.50;2.22;;;;;;;;;;7367026;19;19998;-71
2023/08/13 10:37:23;;;;;;;4.60;2.10;;;;;;;;;;7367100;19;20009;-71
2023/08/13 10:39:54;;;;;;;6.68;2.38;;;;;;;;;;7369490;19;20671;-71
2023/08/13 10:42:33;;;;;;;4.93;2.50;;;;;;;;;;7393252;19;20031;-69
2023/08/13 10:45:08;;;;;;;6.00;2.25;;;;;;;;;;7367660;19;20013;-71
2023/08/13 10:47:47;;;;;;;4.72;2.33;;;;;;;;;;7368827;19;20006;-71
2023/08/13 10:50:24;;;;;;;4.32;2.15;;;;;;;;;;7369613;19;20002;-70
2023/08/13 10:52:55;;;;;;;4.25;2.05;;;;;;;;;;7370325;19;20054;-71
2023/08/13 10:55:24;;;;;;;6.47;2.30;;;;;;;;;;7368519;19;20066;-70
2023/08/13 10:57:51;;;;;;;4.78;2.10;;;;;;;;;;7370029;19;20014;-70
2023/08/13 11:00:17;;;;;;;5.50;2.15;;;;;;;;;;7390896;19;19998;-70
2023/08/13 11:02:50;;;;;;;7.20;2.53;;;;;;;;;;7367397;19;20493;-71
2023/08/13 11:05:15;;;;;;;6.00;2.22;;;;;;;;;;7368335;19;20002;-71
2023/08/13 11:07:42;;;;;;;5.30;2.33;;;;;;;;;;7368156;19;20420;-70
2023/08/13 11:10:14;;;;;;;5.63;2.20;;;;;;;;;;7367826;19;20006;-72
2023/08/13 11:12:39;;;;;;;6.28;2.08;;;;;;;;;;7369035;19;19999;-71
2023/08/13 11:15:05;;;;;;;5.18;2.13;;;;;;;;;;7389180;19;20362;-70
2023/08/13 11:17:31;;;;;;;5.97;2.50;;;;;;;;;;7369138;19;20495;-71
2023/08/13 11:19:57;;;;;;;5.85;2.38;;;;;;;;;;7369405;19;20007;-71
2023/08/13 11:22:24;;;;;;;5.47;2.17;;;;;;;;;;7369500;19;20009;-72
2023/08/13 11:24:50;;;;;;;5.72;2.15;;;;;;;;;;7367146;19;19999;-72
2023/08/13 11:27:15;;;;;;;5.50;2.25;;;;;;;;;;7389998;19;20033;-70
2023/08/13 11:29:41;;;;;;;5.05;2.08;;;;;;;;;;7366178;19;20014;-71
2023/08/13 11:32:06;;;;;;;5.05;1.92;;;;;;;;;;7368610;19;20074;-72
2023/08/13 11:34:31;;;;;;;10.98;2.25;;;;;;;;;;7368437;19;20021;-72
2023/08/13 11:36:57;;;;;;;4.25;2.10;;;;;;;;;;7367874;19;20020;-72
2023/08/13 11:39:23;;;;;;;6.32;2.22;;;;;;;;;;7390445;19;20083;-71
2023/08/13 11:41:51;;;;;;;7.70;2.50;;;;;;;;;;7367162;19;20086;-72
2023/08/13 11:44:16;;;;;;;6.25;2.45;;;;;;;;;;7367123;19;20011;-72
2023/08/13 11:47:00;;;;;;;4.78;2.22;;;;;;;;;;7369487;19;20013;-72
2023/08/13 11:49:26;;;;;;;3.90;1.90;;;;;;;;;;7378234;19;20010;-72
2023/08/13 11:51:55;;;;;;;5.93;2.15;;;;;;;;;;7375803;19;20069;-74
2023/08/13 11:54:21;;;;;;;3.00;1.77;;;;;;;;;;7394644;19;20483;-70
2023/08/13 11:56:48;;;;;;;4.28;2.00;;;;;;;;;;7368231;19;20007;-73
2023/08/13 11:59:13;;;;;;;5.72;2.40;;;;;;;;;;7366477;19;20405;-71
2023/08/13 12:01:38;;;;;;;4.88;2.10;;;;;;;;;;7364164;19;20007;-72
2023/08/13 12:04:04;;;;;;;5.85;2.20;;;;;;;;;;7364039;19;20098;-72
2023/08/13 12:06:34;;;;;;;5.72;1.98;;;;;;;;;;7384903;19;20342;-72
2023/08/13 12:08:59;;;;;;;5.65;2.10;;;;;;;;;;7363586;19;20077;-72
2023/08/13 12:11:24;;;;;;;5.50;2.13;;;;;;;;;;7364022;19;20020;-72
2023/08/13 12:13:50;;;;;;;5.38;2.15;;;;;;;;;;7362035;19;20014;-71
2023/08/13 12:16:15;;;;;;;3.28;1.75;;;;;;;;;;7367596;19;20010;-70
2023/08/13 12:18:41;;;;;;;3.95;1.90;;;;;;;;;;7366831;19;20007;-72
2023/08/13 12:21:06;;;;;;;4.90;2.00;;;;;;;;;;7388312;19;20074;-73
2023/08/13 12:23:31;;;;;;;4.88;2.70;;;;;;;;;;7364989;19;20021;-71
2023/08/13 12:25:57;;;;;;;4.97;2.20;;;;;;;;;;7366892;19;20468;-72
2023/08/13 12:28:22;;;;;;;3.53;1.95;;;;;;;;;;7367091;19;20006;-72
2023/08/13 12:30:47;;;;;;;4.22;1.95;;;;;;;;;;7367304;19;20090;-71
2023/08/13 12:33:13;;;;;;;5.07;2.03;;;;;;;;;;7387256;19;20077;-73
2023/08/13 12:35:38;;;;;;;7.18;2.15;;;;;;;;;;7365337;19;20016;-71
2023/08/13 12:38:04;;;;;;;4.57;2.03;;;;;;;;;;7365074;19;20030;-72
2023/08/13 12:40:29;;;;;;;4.97;1.88;;;;;;;;;;7365795;19;20006;-71
2023/08/13 12:42:54;;;;;;;3.80;1.80;;;;;;;;;;7365822;19;20002;-71
2023/08/13 12:45:19;;;;;;;4.25;1.73;;;;;;;;;;7382290;19;20010;-71
2023/08/13 12:47:45;;;;;;;4.93;1.80;;;;;;;;;;7362831;19;20037;-71
2023/08/13 12:50:10;;;;;;;4.22;1.90;;;;;;;;;;7362874;19;20496;-71
2023/08/13 12:52:36;;;;;;;4.28;1.90;;;;;;;;;;7361737;19;20006;-71
2023/08/13 12:55:02;;;;;;;4.03;1.75;;;;;;;;;;7361486;19;20006;-71
2023/08/13 12:57:27;;;;;;;3.67;1.60;;;;;;;;;;7385849;19;20002;-71
2023/08/13 12:59:53;;;;;;;5.65;2.08;;;;;;;;;;7362491;19;20009;-70
2023/08/13 13:02:19;;;;;;;4.30;1.88;;;;;;;;;;7366589;19;20411;-70
2023/08/13 13:04:44;;;;;;;4.70;1.80;;;;;;;;;;7364828;19;20002;-70
2023/08/13 13:07:10;;;;;;;5.70;1.90;;;;;;;;;;7365977;19;20006;-70
2023/08/13 13:09:35;;;;;;;4.80;1.95;;;;;;;;;;7386173;19;20005;-70
2023/08/13 13:12:00;;;;;;;2.85;1.50;;;;;;;;;;7365909;19;20025;-72
2023/08/13 13:14:26;;;;;;;4.95;2.15;;;;;;;;;;7364365;19;20017;-71
2023/08/13 13:16:51;;;;;;;4.25;1.70;;;;;;;;;;7365345;19;20010;-70
2023/08/13 13:19:16;;;;;;;3.58;1.60;;;;;;;;;;7366763;19;20113;-70
2023/08/13 13:21:42;;;;;;;3.47;1.80;;;;;;;;;;7363272;19;20026;-71
2023/08/13 13:24:08;;;;;;;3.95;1.90;;;;;;;;;;7386125;19;20007;-71
2023/08/13 13:26:33;;;;;;;5.25;1.80;;;;;;;;;;7364834;19;20688;-71
2023/08/13 13:28:58;;;;;;;5.38;1.80;;;;;;;;;;7366020;19;20023;-71
2023/08/13 13:31:24;;;;;;;4.28;1.83;;;;;;;;;;7364961;19;20412;-70
2023/08/13 13:33:49;;;;;;;3.55;1.80;;;;;;;;;;7361096;19;20006;-71
2023/08/13 13:36:14;;;;;;;4.93;1.73;;;;;;;;;;7385605;19;20007;-71
2023/08/13 13:38:40;;;;;;;3.47;1.70;;;;;;;;;;7361426;19;20330;-71
2023/08/13 13:41:06;;;;;;;4.85;1.95;;;;;;;;;;7365688;19;20007;-71
2023/08/13 13:43:31;;;;;;;4.75;1.88;;;;;;;;;;7361802;19;20161;-71
2023/08/13 13:45:57;;;;;;;3.65;1.90;;;;;;;;;;7363803;19;22294;-71
2023/08/13 13:48:22;;;;;;;4.57;1.90;;;;;;;;;;7386887;19;20027;-71
2023/08/13 13:50:48;;;;;;;6.20;2.03;;;;;;;;;;7365942;19;20070;-68
2023/08/13 13:53:13;;;;;;;4.35;1.80;;;;;;;;;;7383723;19;20402;-68
2023/08/13 13:55:38;;;;;;;6.13;2.00;;;;;;;;;;7370200;19;19994;-69
2023/08/13 13:58:05;;;;;;;3.50;1.80;;;;;;;;;;7372230;19;20002;-70
2023/08/13 14:00:31;;;;;;;5.45;2.03;;;;;;;;;;7388069;19;20084;-69
2023/08/13 14:02:56;;;;;;;5.68;2.25;;;;;;;;;;7364257;19;20093;-69
2023/08/13 14:05:21;;;;;;;5.90;1.90;;;;;;;;;;7366327;19;20029;-68
2023/08/13 14:07:47;;;;;;;5.10;1.77;;;;;;;;;;7365074;19;20073;-69
2023/08/13 14:10:12;;;;;;;5.22;1.70;;;;;;;;;;7366693;19;20015;-68
2023/08/13 14:12:38;;;;;;;5.63;1.88;;;;;;;;;;7385352;19;20007;-69
2023/08/13 14:15:03;;;;;;;5.15;2.00;;;;;;;;;;7390711;19;20009;-68
2023/08/13 14:17:29;;;;;;;4.50;2.10;;;;;;;;;;7370764;19;20010;-69
2023/08/13 14:19:54;;;;;;;3.75;1.70;;;;;;;;;;7370297;19;20093;-69
2023/08/13 14:22:20;;;;;;;4.80;2.00;;;;;;;;;;7371106;19;20018;-68
2023/08/13 14:24:45;;;;;;;4.13;1.77;;;;;;;;;;7366949;19;20786;-69
2023/08/13 14:27:10;;;;;;;4.68;1.95;;;;;;;;;;7391102;19;20084;-69
2023/08/13 14:29:36;;;;;;;4.90;1.70;;;;;;;;;;7367610;19;20017;-69
2023/08/13 14:32:02;;;;;;;4.38;1.77;;;;;;;;;;7369039;19;20095;-70
2023/08/13 14:34:27;;;;;;;5.07;1.73;;;;;;;;;;7369795;19;20015;-71
2023/08/13 14:36:52;;;;;;;4.85;2.08;;;;;;;;;;7366783;19;20010;-69
2023/08/13 14:39:18;;;;;;;6.32;1.90;;;;;;;;;;7390091;19;20015;-68